sensor_id;sensor_type;location;lat;lon;timestamp;pressure;altitude;pressure_sealevel;temperature;humidity
40994;BME280;26722;43.212;27.932;2023-10-08T00:00:25;65892.16;;;-146.72;53.64
40994;BME280;26722;43.212;27.932;2023-10-08T00:03:10;66095.50;;;-146.72;50.34
40994;BME280;26722;43.212;27.932;2023-10-08T00:05:39;65955.69;;;-146.72;48.25
40994;BME280;26722;43.212;27.932;2023-10-08T00:08:06;65989.59;;;-146.72;47.04
40994;BME280;26722;43.212;27.932;2023-10-08T00:10:36;66002.28;;;-146.72;45.63
40994;BME280;26722;43.212;27.932;2023-10-08T00:13:03;65989.59;;;-146.72;45.94
40994;BME280;26722;43.212;27.932;2023-10-08T00:15:29;65989.59;;;-146.72;45.53
40994;BME280;26722;43.212;27.932;2023-10-08T00:17:57;65847.69;;;-146.72;45.70
40994;BME280;26722;43.212;27.932;2023-10-08T00:20:24;65928.16;;;-146.72;45.22
40994;BME280;26722;43.212;27.932;2023-10-08T00:23:01;66428.03;;;-146.72;43.11
40994;BME280;26722;43.212;27.932;2023-10-08T00:25:33;66048.91;;;-146.72;41.79
40994;BME280;26722;43.212;27.932;2023-10-08T00:27:59;66027.72;;;-146.72;43.06
40994;BME280;26722;43.212;27.932;2023-10-08T00:30:27;65966.28;;;-146.72;40.82
40994;BME280;26722;43.212;27.932;2023-10-08T00:32:52;66034.06;;;-146.72;41.05
40994;BME280;26722;43.212;27.932;2023-10-08T00:35:18;65991.72;;;-146.72;41.60
40994;BME280;26722;43.212;27.932;2023-10-08T00:37:46;66036.19;;;-146.72;41.47
40994;BME280;26722;43.212;27.932;2023-10-08T00:40:13;66012.88;;;-146.72;42.42
40994;BME280;26722;43.212;27.932;2023-10-08T00:42:44;66044.66;;;-146.72;41.63
40994;BME280;26722;43.212;27.932;2023-10-08T00:45:11;66027.72;;;-146.72;42.16
40994;BME280;26722;43.212;27.932;2023-10-08T00:47:40;66021.34;;;-146.72;42.07
40994;BME280;26722;43.212;27.932;2023-10-08T00:50:12;66029.84;;;-146.72;41.94
40994;BME280;26722;43.212;27.932;2023-10-08T00:52:56;66048.91;;;-146.72;41.78
40994;BME280;26722;43.212;27.932;2023-10-08T00:55:35;65985.34;;;-146.72;42.36
40994;BME280;26722;43.212;27.932;2023-10-08T00:58:01;66044.66;;;-146.72;41.40
40994;BME280;26722;43.212;27.932;2023-10-08T01:00:36;66048.91;;;-146.72;40.68
40994;BME280;26722;43.212;27.932;2023-10-08T01:03:07;66027.72;;;-146.72;41.05
40994;BME280;26722;43.212;27.932;2023-10-08T01:05:40;65858.28;;;-146.72;40.16
40994;BME280;26722;43.212;27.932;2023-10-08T01:08:13;66042.53;;;-146.72;40.23
40994;BME280;26722;43.212;27.932;2023-10-08T01:10:43;66038.31;;;-146.72;40.30
40994;BME280;26722;43.212;27.932;2023-10-08T01:13:10;66042.53;;;-146.72;40.25
40994;BME280;26722;43.212;27.932;2023-10-08T01:15:46;66031.94;;;-146.72;40.11
40994;BME280;26722;43.212;27.932;2023-10-08T01:18:15;66048.91;;;-146.72;40.31
40994;BME280;26722;43.212;27.932;2023-10-08T01:20:43;66072.19;;;-146.72;40.54
40994;BME280;26722;43.212;27.932;2023-10-08T01:23:11;66031.94;;;-146.72;40.89
40994;BME280;26722;43.212;27.932;2023-10-08T01:25:45;66019.25;;;-146.72;40.83
40994;BME280;26722;43.212;27.932;2023-10-08T01:28:16;66019.25;;;-146.72;41.10
40994;BME280;26722;43.212;27.932;2023-10-08T01:30:52;66046.78;;;-146.72;41.01
40994;BME280;26722;43.212;27.932;2023-10-08T01:33:26;66027.72;;;-146.72;40.87
40994;BME280;26722;43.212;27.932;2023-10-08T01:36:02;65998.06;;;-146.72;41.28
40994;BME280;26722;43.212;27.932;2023-10-08T01:38:32;66010.78;;;-146.72;41.87
40994;BME280;26722;43.212;27.932;2023-10-08T01:40:58;66038.31;;;-146.72;41.43
40994;BME280;26722;43.212;27.932;2023-10-08T01:43:29;66286.13;;;-146.72;41.45
40994;BME280;26722;43.212;27.932;2023-10-08T01:45:55;66017.13;;;-146.72;41.92
40994;BME280;26722;43.212;27.932;2023-10-08T01:48:21;66027.72;;;-146.72;42.44
40994;BME280;26722;43.212;27.932;2023-10-08T01:50:57;66023.47;;;-146.72;42.24
40994;BME280;26722;43.212;27.932;2023-10-08T01:53:27;66036.19;;;-146.72;42.63
40994;BME280;26722;43.212;27.932;2023-10-08T01:55:53;66040.41;;;-146.72;42.84
40994;BME280;26722;43.212;27.932;2023-10-08T01:58:21;66027.72;;;-146.72;42.68
40994;BME280;26722;43.212;27.932;2023-10-08T02:00:48;66040.41;;;-146.72;42.88
40994;BME280;26722;43.212;27.932;2023-10-08T02:03:15;66053.13;;;-146.72;42.56
40994;BME280;26722;43.212;27.932;2023-10-08T02:05:43;66051.00;;;-146.72;42.74
40994;BME280;26722;43.212;27.932;2023-10-08T02:08:10;66027.72;;;-146.72;42.50
40994;BME280;26722;43.212;27.932;2023-10-08T02:10:37;66044.66;;;-146.72;42.93
40994;BME280;26722;43.212;27.932;2023-10-08T02:13:03;66044.66;;;-146.72;43.28
40994;BME280;26722;43.212;27.932;2023-10-08T02:15:30;66036.19;;;-146.72;43.44
40994;BME280;26722;43.212;27.932;2023-10-08T02:17:55;66046.78;;;-146.72;44.39
40994;BME280;26722;43.212;27.932;2023-10-08T02:20:21;66036.19;;;-146.72;44.41
40994;BME280;26722;43.212;27.932;2023-10-08T02:22:47;66023.47;;;-146.72;44.39
40994;BME280;26722;43.212;27.932;2023-10-08T02:25:15;66046.78;;;-146.72;44.69
40994;BME280;26722;43.212;27.932;2023-10-08T02:27:40;66029.84;;;-146.72;44.83
40994;BME280;26722;43.212;27.932;2023-10-08T02:30:07;66036.19;;;-146.72;44.54
40994;BME280;26722;43.212;27.932;2023-10-08T02:32:35;66000.19;;;-146.72;44.65
40994;BME280;26722;43.212;27.932;2023-10-08T02:35:02;66019.25;;;-146.72;44.29
40994;BME280;26722;43.212;27.932;2023-10-08T02:37:28;66000.19;;;-146.72;44.08
40994;BME280;26722;43.212;27.932;2023-10-08T02:39:53;66015.00;;;-146.72;43.79
40994;BME280;26722;43.212;27.932;2023-10-08T02:42:20;66040.41;;;-146.72;43.47
40994;BME280;26722;43.212;27.932;2023-10-08T02:44:47;66012.88;;;-146.72;43.37
40994;BME280;26722;43.212;27.932;2023-10-08T02:47:12;66031.94;;;-146.72;42.73
40994;BME280;26722;43.212;27.932;2023-10-08T02:49:46;65957.81;;;-146.72;42.67
40994;BME280;26722;43.212;27.932;2023-10-08T02:52:13;66017.13;;;-146.72;42.68
40994;BME280;26722;43.212;27.932;2023-10-08T02:54:41;66021.34;;;-146.72;42.25
40994;BME280;26722;43.212;27.932;2023-10-08T02:57:07;66019.25;;;-146.72;41.99
40994;BME280;26722;43.212;27.932;2023-10-08T02:59:39;66027.72;;;-146.72;42.02
40994;BME280;26722;43.212;27.932;2023-10-08T03:02:12;66019.25;;;-146.72;41.42
40994;BME280;26722;43.212;27.932;2023-10-08T03:04:48;66036.19;;;-146.72;41.41
40994;BME280;26722;43.212;27.932;2023-10-08T03:07:16;66031.94;;;-146.72;41.40
40994;BME280;26722;43.212;27.932;2023-10-08T03:10:11;66036.19;;;-146.72;41.22
40994;BME280;26722;43.212;27.932;2023-10-08T03:12:44;66023.47;;;-146.72;41.60
40994;BME280;26722;43.212;27.932;2023-10-08T03:15:12;66002.28;;;-146.72;41.56
40994;BME280;26722;43.212;27.932;2023-10-08T03:17:38;66010.78;;;-146.72;41.83
40994;BME280;26722;43.212;27.932;2023-10-08T03:20:05;66015.00;;;-146.72;41.65
40994;BME280;26722;43.212;27.932;2023-10-08T03:22:50;66040.41;;;-146.72;41.91
40994;BME280;26722;43.212;27.932;2023-10-08T03:25:16;66023.47;;;-146.72;42.15
40994;BME280;26722;43.212;27.932;2023-10-08T03:27:43;66031.94;;;-146.72;42.32
40994;BME280;26722;43.212;27.932;2023-10-08T03:30:09;66002.28;;;-146.72;42.58
40994;BME280;26722;43.212;27.932;2023-10-08T03:32:40;66019.25;;;-146.72;43.09
40994;BME280;26722;43.212;27.932;2023-10-08T03:35:07;66012.88;;;-146.72;43.54
40994;BME280;26722;43.212;27.932;2023-10-08T03:37:38;66023.47;;;-146.72;43.55
40994;BME280;26722;43.212;27.932;2023-10-08T03:40:07;66027.72;;;-146.72;44.22
40994;BME280;26722;43.212;27.932;2023-10-08T03:42:55;65989.59;;;-146.72;43.90
40994;BME280;26722;43.212;27.932;2023-10-08T03:45:21;66036.19;;;-146.72;43.31
40994;BME280;26722;43.212;27.932;2023-10-08T03:48:06;66061.59;;;-146.72;43.34
40994;BME280;26722;43.212;27.932;2023-10-08T03:50:33;66038.31;;;-146.72;43.22
40994;BME280;26722;43.212;27.932;2023-10-08T03:53:09;66029.84;;;-146.72;43.32
40994;BME280;26722;43.212;27.932;2023-10-08T03:55:39;66040.41;;;-146.72;43.57
40994;BME280;26722;43.212;27.932;2023-10-08T03:58:09;66006.53;;;-146.72;43.61
40994;BME280;26722;43.212;27.932;2023-10-08T04:00:56;66021.34;;;-146.72;43.71
40994;BME280;26722;43.212;27.932;2023-10-08T04:03:37;66027.72;;;-146.72;43.49
40994;BME280;26722;43.212;27.932;2023-10-08T04:06:20;66015.00;;;-146.72;43.60
40994;BME280;26722;43.212;27.932;2023-10-08T04:08:54;66010.78;;;-146.72;43.72
40994;BME280;26722;43.212;27.932;2023-10-08T04:11:38;66019.25;;;-146.72;43.82
40994;BME280;26722;43.212;27.932;2023-10-08T04:14:27;66010.78;;;-146.72;43.64
40994;BME280;26722;43.212;27.932;2023-10-08T04:16:53;66059.47;;;-146.72;43.44
40994;BME280;26722;43.212;27.932;2023-10-08T04:19:20;66008.66;;;-146.72;43.94
40994;BME280;26722;43.212;27.932;2023-10-08T04:21:50;66034.06;;;-146.72;43.49
40994;BME280;26722;43.212;27.932;2023-10-08T04:24:21;66017.13;;;-146.72;43.39
40994;BME280;26722;43.212;27.932;2023-10-08T04:26:54;65837.09;;;-146.72;43.17
40994;BME280;26722;43.212;27.932;2023-10-08T04:29:21;66067.97;;;-146.72;42.63
40994;BME280;26722;43.212;27.932;2023-10-08T04:31:48;66008.66;;;-146.72;42.94
40994;BME280;26722;43.212;27.932;2023-10-08T04:34:19;65981.13;;;-146.72;42.63
40994;BME280;26722;43.212;27.932;2023-10-08T04:36:49;66031.94;;;-146.72;42.95
40994;BME280;26722;43.212;27.932;2023-10-08T04:39:23;65998.06;;;-146.72;42.91
40994;BME280;26722;43.212;27.932;2023-10-08T04:41:56;65945.13;;;-146.72;43.04
40994;BME280;26722;43.212;27.932;2023-10-08T04:44:24;66053.13;;;-146.72;42.76
40994;BME280;26722;43.212;27.932;2023-10-08T04:46:51;66006.53;;;-146.72;43.18
40994;BME280;26722;43.212;27.932;2023-10-08T04:49:20;65981.13;;;-146.72;43.14
40994;BME280;26722;43.212;27.932;2023-10-08T04:51:57;66019.25;;;-146.72;42.96
40994;BME280;26722;43.212;27.932;2023-10-08T04:54:27;65972.66;;;-146.72;43.08
40994;BME280;26722;43.212;27.932;2023-10-08T04:56:57;65998.06;;;-146.72;43.66
40994;BME280;26722;43.212;27.932;2023-10-08T04:59:27;66019.25;;;-146.72;43.56
40994;BME280;26722;43.212;27.932;2023-10-08T05:01:58;65904.88;;;-146.72;43.80
40994;BME280;26722;43.212;27.932;2023-10-08T05:04:43;66019.25;;;-146.72;44.00
40994;BME280;26722;43.212;27.932;2023-10-08T05:07:25;66010.78;;;-146.72;44.40
40994;BME280;26722;43.212;27.932;2023-10-08T05:10:26;66010.78;;;-146.72;44.71
40994;BME280;26722;43.212;27.932;2023-10-08T05:12:52;65995.94;;;-146.72;44.49
40994;BME280;26722;43.212;27.932;2023-10-08T05:15:33;66002.28;;;-146.72;44.47
40994;BME280;26722;43.212;27.932;2023-10-08T05:18:01;66025.59;;;-146.72;43.90
40994;BME280;26722;43.212;27.932;2023-10-08T05:20:45;65995.94;;;-146.72;43.62
40994;BME280;26722;43.212;27.932;2023-10-08T05:23:14;65945.13;;;-146.72;43.48
40994;BME280;26722;43.212;27.932;2023-10-08T05:25:47;66019.25;;;-146.72;43.61
40994;BME280;26722;43.212;27.932;2023-10-08T05:28:32;65938.75;;;-146.72;43.11
40994;BME280;26722;43.212;27.932;2023-10-08T05:31:10;65981.13;;;-146.72;43.39
40994;BME280;26722;43.212;27.932;2023-10-08T05:33:37;66408.97;;;-146.72;42.81
40994;BME280;26722;43.212;27.932;2023-10-08T05:36:11;66010.78;;;-146.72;43.01
40994;BME280;26722;43.212;27.932;2023-10-08T05:38:43;66051.00;;;-146.72;42.89
40994;BME280;26722;43.212;27.932;2023-10-08T05:41:28;65991.72;;;-146.72;43.19
40994;BME280;26722;43.212;27.932;2023-10-08T05:43:56;66209.88;;;-146.72;43.21
40994;BME280;26722;43.212;27.932;2023-10-08T05:46:40;66076.44;;;-146.72;43.06
40994;BME280;26722;43.212;27.932;2023-10-08T05:49:14;66015.00;;;-146.72;42.70
40994;BME280;26722;43.212;27.932;2023-10-08T05:51:40;65991.72;;;-146.72;42.41
40994;BME280;26722;43.212;27.932;2023-10-08T05:54:30;65989.59;;;-146.72;42.01
40994;BME280;26722;43.212;27.932;2023-10-08T05:56:56;65983.22;;;-146.72;42.38
40994;BME280;26722;43.212;27.932;2023-10-08T05:59:47;65985.34;;;-146.72;41.70
40994;BME280;26722;43.212;27.932;2023-10-08T06:02:31;66025.59;;;-146.72;41.37
40994;BME280;26722;43.212;27.932;2023-10-08T06:07:53;65951.47;;;-146.72;41.20
40994;BME280;26722;43.212;27.932;2023-10-08T06:10:20;65989.59;;;-146.72;40.56
40994;BME280;26722;43.212;27.932;2023-10-08T06:12:59;65985.34;;;-146.72;40.59
40994;BME280;26722;43.212;27.932;2023-10-08T06:18:28;66023.47;;;-146.72;39.87
40994;BME280;26722;43.212;27.932;2023-10-08T06:20:54;66015.00;;;-146.72;39.58
40994;BME280;26722;43.212;27.932;2023-10-08T06:23:20;66002.28;;;-146.72;39.78
40994;BME280;26722;43.212;27.932;2023-10-08T06:25:49;65974.75;;;-146.72;39.52
40994;BME280;26722;43.212;27.932;2023-10-08T06:28:30;66023.47;;;-146.72;39.49
40994;BME280;26722;43.212;27.932;2023-10-08T06:30:57;66021.34;;;-146.72;39.04
40994;BME280;26722;43.212;27.932;2023-10-08T06:33:24;66015.00;;;-146.72;38.89
40994;BME280;26722;43.212;27.932;2023-10-08T06:35:57;65993.81;;;-146.72;38.42
40994;BME280;26722;43.212;27.932;2023-10-08T06:38:46;66034.06;;;-146.72;37.81
40994;BME280;26722;43.212;27.932;2023-10-08T06:41:15;66002.28;;;-146.72;37.66
40994;BME280;26722;43.212;27.932;2023-10-08T06:43:49;66053.13;;;-146.72;37.57
40994;BME280;26722;43.212;27.932;2023-10-08T06:46:18;66053.13;;;-146.72;37.46
40994;BME280;26722;43.212;27.932;2023-10-08T06:48:47;66065.84;;;-146.72;37.01
40994;BME280;26722;43.212;27.932;2023-10-08T06:51:15;66036.19;;;-146.72;37.25
40994;BME280;26722;43.212;27.932;2023-10-08T06:53:46;66061.59;;;-146.72;36.86
40994;BME280;26722;43.212;27.932;2023-10-08T06:56:13;66070.06;;;-146.72;36.83
40994;BME280;26722;43.212;27.932;2023-10-08T06:58:40;66112.44;;;-146.72;36.69
40994;BME280;26722;43.212;27.932;2023-10-08T07:01:19;66055.25;;;-146.72;37.30
40994;BME280;26722;43.212;27.932;2023-10-08T07:03:50;66061.59;;;-146.72;36.53
40994;BME280;26722;43.212;27.932;2023-10-08T07:06:19;66084.91;;;-146.72;36.28
40994;BME280;26722;43.212;27.932;2023-10-08T07:08:52;66091.25;;;-146.72;34.92
40994;BME280;26722;43.212;27.932;2023-10-08T07:11:21;66548.78;;;-146.72;34.55
40994;BME280;26722;43.212;27.932;2023-10-08T07:13:47;66110.31;;;-146.72;34.37
40994;BME280;26722;43.212;27.932;2023-10-08T07:16:13;66167.50;;;-146.72;34.21
40994;BME280;26722;43.212;27.932;2023-10-08T07:18:43;66320.03;;;-146.72;34.09
40994;BME280;26722;43.212;27.932;2023-10-08T07:21:13;66180.22;;;-146.72;33.86
40994;BME280;26722;43.212;27.932;2023-10-08T07:23:39;66178.09;;;-146.72;33.94
40994;BME280;26722;43.212;27.932;2023-10-08T07:26:25;66171.75;;;-146.72;33.99
40994;BME280;26722;43.212;27.932;2023-10-08T07:28:51;66159.03;;;-146.72;34.21
40994;BME280;26722;43.212;27.932;2023-10-08T07:31:19;66167.50;;;-146.72;33.63
40994;BME280;26722;43.212;27.932;2023-10-08T07:33:50;66192.94;;;-146.72;33.70
40994;BME280;26722;43.212;27.932;2023-10-08T07:36:25;66167.50;;;-146.72;34.13
40994;BME280;26722;43.212;27.932;2023-10-08T07:38:52;66169.63;;;-146.72;33.01
40994;BME280;26722;43.212;27.932;2023-10-08T07:41:19;66207.75;;;-146.72;33.15
40994;BME280;26722;43.212;27.932;2023-10-08T07:43:48;66201.41;;;-146.72;33.04
40994;BME280;26722;43.212;27.932;2023-10-08T07:46:24;66154.81;;;-146.72;33.02
40994;BME280;26722;43.212;27.932;2023-10-08T07:48:52;66226.81;;;-146.72;33.02
40994;BME280;26722;43.212;27.932;2023-10-08T07:51:17;66203.53;;;-146.72;32.99
40994;BME280;26722;43.212;27.932;2023-10-08T07:53:52;66239.53;;;-146.72;32.50
40994;BME280;26722;43.212;27.932;2023-10-08T07:56:22;66226.81;;;-146.72;32.82
40994;BME280;26722;43.212;27.932;2023-10-08T07:58:47;66264.94;;;-146.72;32.43
40994;BME280;26722;43.212;27.932;2023-10-08T08:01:13;66235.28;;;-146.72;32.05
40994;BME280;26722;43.212;27.932;2023-10-08T08:03:40;66267.06;;;-146.72;32.31
40994;BME280;26722;43.212;27.932;2023-10-08T08:06:07;66250.13;;;-146.72;32.92
40994;BME280;26722;43.212;27.932;2023-10-08T08:08:34;66277.66;;;-146.72;31.83
40994;BME280;26722;43.212;27.932;2023-10-08T08:11:04;66271.31;;;-146.72;33.23
40994;BME280;26722;43.212;27.932;2023-10-08T08:13:38;66332.72;;;-146.72;32.42
40994;BME280;26722;43.212;27.932;2023-10-08T08:16:03;66320.03;;;-146.72;32.41
40994;BME280;26722;43.212;27.932;2023-10-08T08:18:42;66296.72;;;-146.72;32.27
40994;BME280;26722;43.212;27.932;2023-10-08T08:21:10;66279.78;;;-146.72;33.09
40994;BME280;26722;43.212;27.932;2023-10-08T08:23:40;66328.50;;;-146.72;31.86
40994;BME280;26722;43.212;27.932;2023-10-08T08:26:05;66311.53;;;-146.72;31.90
40994;BME280;26722;43.212;27.932;2023-10-08T08:28:36;66332.72;;;-146.72;31.34
40994;BME280;26722;43.212;27.932;2023-10-08T08:31:03;66351.78;;;-146.72;31.56
40994;BME280;26722;43.212;27.932;2023-10-08T08:33:41;66353.91;;;-146.72;31.04
40994;BME280;26722;43.212;27.932;2023-10-08T08:36:23;66375.09;;;-146.72;31.09
40994;BME280;26722;43.212;27.932;2023-10-08T08:38:50;66349.66;;;-146.72;31.02
40994;BME280;26722;43.212;27.932;2023-10-08T08:41:16;66362.38;;;-146.72;31.07
40994;BME280;26722;43.212;27.932;2023-10-08T08:43:51;66389.91;;;-146.72;30.95
40994;BME280;26722;43.212;27.932;2023-10-08T08:46:34;66421.69;;;-146.72;30.55
40994;BME280;26722;43.212;27.932;2023-10-08T08:49:07;66375.09;;;-146.72;30.74
40994;BME280;26722;43.212;27.932;2023-10-08T08:51:34;66328.50;;;-146.72;31.38
40994;BME280;26722;43.212;27.932;2023-10-08T08:54:00;66434.41;;;-146.72;30.46
40994;BME280;26722;43.212;27.932;2023-10-08T08:56:33;66379.31;;;-146.72;30.91
40994;BME280;26722;43.212;27.932;2023-10-08T08:58:59;66432.28;;;-146.72;30.65
40994;BME280;26722;43.212;27.932;2023-10-08T09:01:26;66428.03;;;-146.72;30.72
40994;BME280;26722;43.212;27.932;2023-10-08T09:03:58;66419.56;;;-146.72;30.63
40994;BME280;26722;43.212;27.932;2023-10-08T09:06:26;66447.13;;;-146.72;30.27
40994;BME280;26722;43.212;27.932;2023-10-08T09:08:52;66495.84;;;-146.72;30.23
40994;BME280;26722;43.212;27.932;2023-10-08T09:11:21;66527.63;;;-146.72;29.83
40994;BME280;26722;43.212;27.932;2023-10-08T09:13:47;66497.94;;;-146.72;29.90
40994;BME280;26722;43.212;27.932;2023-10-08T09:16:16;66544.56;;;-146.72;29.78
40994;BME280;26722;43.212;27.932;2023-10-08T09:18:49;66514.91;;;-146.72;29.83
40994;BME280;26722;43.212;27.932;2023-10-08T09:21:16;66510.66;;;-146.72;30.04
40994;BME280;26722;43.212;27.932;2023-10-08T09:23:49;66589.03;;;-146.72;29.49
40994;BME280;26722;43.212;27.932;2023-10-08T09:26:22;66582.69;;;-146.72;29.67
40994;BME280;26722;43.212;27.932;2023-10-08T09:28:48;66527.63;;;-146.72;29.01
40994;BME280;26722;43.212;27.932;2023-10-08T09:31:15;66553.03;;;-146.72;29.07
40994;BME280;26722;43.212;27.932;2023-10-08T09:33:43;66580.56;;;-146.72;29.11
40994;BME280;26722;43.212;27.932;2023-10-08T09:36:09;66559.38;;;-146.72;29.07
40994;BME280;26722;43.212;27.932;2023-10-08T09:38:44;66563.63;;;-146.72;29.86
40994;BME280;26722;43.212;27.932;2023-10-08T09:41:11;66601.75;;;-146.72;28.74
40994;BME280;26722;43.212;27.932;2023-10-08T09:43:38;66586.94;;;-146.72;29.78
40994;BME280;26722;43.212;27.932;2023-10-08T09:46:18;66669.53;;;-146.72;28.76
40994;BME280;26722;43.212;27.932;2023-10-08T09:48:50;66593.28;;;-146.72;28.50
40994;BME280;26722;43.212;27.932;2023-10-08T09:51:18;66618.69;;;-146.72;28.73
40994;BME280;26722;43.212;27.932;2023-10-08T09:54:10;66686.50;;;-146.72;28.59
40994;BME280;26722;43.212;27.932;2023-10-08T09:56:36;66663.19;;;-146.72;28.27
40994;BME280;26722;43.212;27.932;2023-10-08T09:59:02;66682.25;;;-146.72;28.14
40994;BME280;26722;43.212;27.932;2023-10-08T10:01:28;66678.00;;;-146.72;28.06
40994;BME280;26722;43.212;27.932;2023-10-08T10:03:57;66720.38;;;-146.72;28.59
40994;BME280;26722;43.212;27.932;2023-10-08T10:06:26;66690.72;;;-146.72;28.25
40994;BME280;26722;43.212;27.932;2023-10-08T10:08:55;66690.72;;;-146.72;28.37
40994;BME280;26722;43.212;27.932;2023-10-08T10:11:25;66735.22;;;-146.72;28.27
40994;BME280;26722;43.212;27.932;2023-10-08T10:13:58;66745.81;;;-146.72;27.96
40994;BME280;26722;43.212;27.932;2023-10-08T10:16:25;66752.16;;;-146.72;27.93
40994;BME280;26722;43.212;27.932;2023-10-08T10:18:55;66764.88;;;-146.72;28.32
40994;BME280;26722;43.212;27.932;2023-10-08T10:21:40;66771.22;;;-146.72;27.96
40994;BME280;26722;43.212;27.932;2023-10-08T10:24:22;66790.28;;;-146.72;27.99
40994;BME280;26722;43.212;27.932;2023-10-08T10:26:48;66786.06;;;-146.72;27.56
40994;BME280;26722;43.212;27.932;2023-10-08T10:29:18;66756.41;;;-146.72;28.27
40994;BME280;26722;43.212;27.932;2023-10-08T10:31:49;66762.75;;;-146.72;27.46
40994;BME280;26722;43.212;27.932;2023-10-08T10:34:20;66807.25;;;-146.72;27.42
40994;BME280;26722;43.212;27.932;2023-10-08T10:36:49;66845.38;;;-146.72;27.48
40994;BME280;26722;43.212;27.932;2023-10-08T10:39:18;66839.03;;;-146.72;27.48
40994;BME280;26722;43.212;27.932;2023-10-08T10:41:57;66858.09;;;-146.72;28.09
40994;BME280;26722;43.212;27.932;2023-10-08T10:44:27;66872.91;;;-146.72;27.25
40994;BME280;26722;43.212;27.932;2023-10-08T10:46:55;66930.13;;;-146.72;26.82
40994;BME280;26722;43.212;27.932;2023-10-08T10:49:39;66877.16;;;-146.72;27.17
40994;BME280;26722;43.212;27.932;2023-10-08T10:52:14;66955.53;;;-146.72;27.26
40994;BME280;26722;43.212;27.932;2023-10-08T10:54:44;66900.47;;;-146.72;27.26
40994;BME280;26722;43.212;27.932;2023-10-08T10:57:25;66951.31;;;-146.72;27.12
40994;BME280;26722;43.212;27.932;2023-10-08T11:00:04;66947.06;;;-146.72;27.00
40994;BME280;26722;43.212;27.932;2023-10-08T11:02:48;67031.81;;;-146.72;26.99
40994;BME280;26722;43.212;27.932;2023-10-08T11:05:15;66993.69;;;-146.72;26.79
40994;BME280;26722;43.212;27.932;2023-10-08T11:07:46;66959.78;;;-146.72;26.82
40994;BME280;26722;43.212;27.932;2023-10-08T11:10:13;66947.06;;;-146.72;27.32
40994;BME280;26722;43.212;27.932;2023-10-08T11:12:42;66983.09;;;-146.72;27.09
40994;BME280;26722;43.212;27.932;2023-10-08T11:15:15;67042.41;;;-146.72;27.21
40994;BME280;26722;43.212;27.932;2023-10-08T11:17:44;66995.81;;;-146.72;26.99
40994;BME280;26722;43.212;27.932;2023-10-08T11:20:28;66947.06;;;-146.72;27.76
40994;BME280;26722;43.212;27.932;2023-10-08T11:22:55;66964.03;;;-146.72;27.29
40994;BME280;26722;43.212;27.932;2023-10-08T11:25:24;66985.22;;;-146.72;26.85
40994;BME280;26722;43.212;27.932;2023-10-08T11:27:56;66997.91;;;-146.72;26.95
40994;BME280;26722;43.212;27.932;2023-10-08T11:30:34;67008.50;;;-146.72;27.11
40994;BME280;26722;43.212;27.932;2023-10-08T11:33:01;67023.34;;;-146.72;26.75
40994;BME280;26722;43.212;27.932;2023-10-08T11:35:26;67029.69;;;-146.72;27.48
40994;BME280;26722;43.212;27.932;2023-10-08T11:38:00;67010.63;;;-146.72;26.80
40994;BME280;26722;43.212;27.932;2023-10-08T11:40:28;67050.88;;;-146.72;26.58
40994;BME280;26722;43.212;27.932;2023-10-08T11:42:55;67050.88;;;-146.72;26.83
40994;BME280;26722;43.212;27.932;2023-10-08T11:45:27;67027.56;;;-146.72;27.45
40994;BME280;26722;43.212;27.932;2023-10-08T11:47:53;67044.53;;;-146.72;27.20
40994;BME280;26722;43.212;27.932;2023-10-08T11:50:28;67057.25;;;-146.72;27.36
40994;BME280;26722;43.212;27.932;2023-10-08T11:52:58;67076.31;;;-146.72;26.94
40994;BME280;26722;43.212;27.932;2023-10-08T11:55:27;67010.63;;;-146.72;27.14
40994;BME280;26722;43.212;27.932;2023-10-08T11:57:52;67074.19;;;-146.72;26.85
40994;BME280;26722;43.212;27.932;2023-10-08T12:00:19;67069.94;;;-146.72;27.00
40994;BME280;26722;43.212;27.932;2023-10-08T12:02:46;67125.03;;;-146.72;27.00
40994;BME280;26722;43.212;27.932;2023-10-08T12:05:12;67053.00;;;-146.72;27.31
40994;BME280;26722;43.212;27.932;2023-10-08T12:07:47;67072.06;;;-146.72;26.93
40994;BME280;26722;43.212;27.932;2023-10-08T12:10:16;67089.03;;;-146.72;26.85
40994;BME280;26722;43.212;27.932;2023-10-08T12:12:51;67093.25;;;-146.72;27.04
40994;BME280;26722;43.212;27.932;2023-10-08T12:15:18;67099.63;;;-146.72;26.83
40994;BME280;26722;43.212;27.932;2023-10-08T12:17:48;67072.06;;;-146.72;26.79
40994;BME280;26722;43.212;27.932;2023-10-08T12:20:32;67097.50;;;-146.72;26.85
40994;BME280;26722;43.212;27.932;2023-10-08T12:22:59;67108.09;;;-146.72;26.67
40994;BME280;26722;43.212;27.932;2023-10-08T12:25:25;67095.38;;;-146.72;26.73
40994;BME280;26722;43.212;27.932;2023-10-08T12:27:50;66917.41;;;-146.72;27.38
40994;BME280;26722;43.212;27.932;2023-10-08T12:30:16;67095.38;;;-146.72;26.74
40994;BME280;26722;43.212;27.932;2023-10-08T12:32:41;67127.16;;;-146.72;26.88
40994;BME280;26722;43.212;27.932;2023-10-08T12:35:10;67178.00;;;-146.72;26.80
40994;BME280;26722;43.212;27.932;2023-10-08T12:37:39;67129.28;;;-146.72;27.23
40994;BME280;26722;43.212;27.932;2023-10-08T12:40:06;67091.13;;;-146.72;27.21
40994;BME280;26722;43.212;27.932;2023-10-08T12:42:37;67142.00;;;-146.72;26.90
40994;BME280;26722;43.212;27.932;2023-10-08T12:45:09;67108.09;;;-146.72;26.94
40994;BME280;26722;43.212;27.932;2023-10-08T12:47:40;67112.31;;;-146.72;27.32
40994;BME280;26722;43.212;27.932;2023-10-08T12:50:07;67050.88;;;-146.72;27.71
40994;BME280;26722;43.212;27.932;2023-10-08T12:52:33;67055.13;;;-146.72;27.44
40994;BME280;26722;43.212;27.932;2023-10-08T12:55:02;67069.94;;;-146.72;27.66